createdAt,value
2023-02-15T00:01:58.760Z,97.50
2023-02-15T00:04:46.522Z,97.10
2023-02-15T00:07:15.986Z,97.20
2023-02-15T00:09:43.305Z,97.80
2023-02-15T00:12:10.919Z,97.70
2023-02-15T00:14:37.751Z,97.30
2023-02-15T00:17:04.735Z,96.60
2023-02-15T00:19:31.578Z,96.80
2023-02-15T00:21:58.467Z,96.90
2023-02-15T00:24:25.311Z,97.50
2023-02-15T00:26:52.223Z,98.10
2023-02-15T00:29:20.868Z,97.80
2023-02-15T00:31:47.989Z,97.00
2023-02-15T00:34:23.150Z,96.70
2023-02-15T00:36:50.633Z,96.40
2023-02-15T00:39:18.489Z,95.90
2023-02-15T00:41:46.004Z,95.60
2023-02-15T00:44:13.644Z,95.50
2023-02-15T00:46:40.528Z,94.80
2023-02-15T00:49:07.243Z,94.10
2023-02-15T00:51:34.380Z,93.70
2023-02-15T00:54:01.173Z,93.30
2023-02-15T00:56:29.429Z,93.10
2023-02-15T00:58:56.394Z,92.70
2023-02-15T01:01:24.517Z,93.20
2023-02-15T01:03:51.442Z,93.30
2023-02-15T01:06:18.431Z,93.10
2023-02-15T01:08:46.455Z,93.50
2023-02-15T01:11:23.117Z,93.90
2023-02-15T01:13:56.266Z,93.80
2023-02-15T01:16:25.472Z,93.30
2023-02-15T01:18:52.211Z,93.80
2023-02-15T01:21:23.938Z,94.10
2023-02-15T01:23:50.683Z,94.40
2023-02-15T01:26:18.488Z,94.50
2023-02-15T01:28:46.004Z,94.80
2023-02-15T01:31:18.488Z,95.10
2023-02-15T01:33:46.255Z,94.90
2023-02-15T01:36:13.156Z,94.90
2023-02-15T01:38:42.887Z,94.80
2023-02-15T01:41:24.319Z,94.90
2023-02-15T01:44:00.405Z,94.80
2023-02-15T01:46:41.888Z,94.50
2023-02-15T01:49:14.329Z,94.40
2023-02-15T01:51:44.510Z,94.30
2023-02-15T01:54:20.066Z,94.30
2023-02-15T01:56:48.679Z,94.10
2023-02-15T01:59:20.874Z,93.50
2023-02-15T02:01:48.032Z,92.60
2023-02-15T02:04:17.327Z,92.60
2023-02-15T02:06:47.567Z,93.80
2023-02-15T02:09:14.631Z,94.60
2023-02-15T02:11:42.390Z,95.20
2023-02-15T02:14:09.297Z,95.10
2023-02-15T02:16:57.168Z,94.90
2023-02-15T02:19:45.614Z,94.70
2023-02-15T02:22:17.923Z,94.00
2023-02-15T02:25:22.552Z,93.50
2023-02-15T02:27:58.818Z,93.10
2023-02-15T02:30:44.392Z,92.90
2023-02-15T02:33:33.162Z,93.10
2023-02-15T02:36:08.754Z,93.20
2023-02-15T02:38:41.545Z,93.40
2023-02-15T02:41:22.970Z,93.90
2023-02-15T02:43:53.390Z,94.00
2023-02-15T02:46:32.519Z,94.10
2023-02-15T02:48:59.362Z,93.80
2023-02-15T02:51:26.065Z,93.90
2023-02-15T02:53:57.794Z,94.00
2023-02-15T02:57:01.615Z,93.70
2023-02-15T02:59:33.578Z,93.60
2023-02-15T03:02:13.879Z,94.10
2023-02-15T03:04:46.216Z,94.20
2023-02-15T03:07:22.990Z,94.30
2023-02-15T03:09:54.099Z,94.40
2023-02-15T03:12:24.528Z,94.50
2023-02-15T03:15:06.726Z,94.70
2023-02-15T03:17:36.475Z,95.00
2023-02-15T03:20:10.296Z,95.60
2023-02-15T03:22:40.148Z,95.70
2023-02-15T03:25:21.973Z,96.10
2023-02-15T03:27:53.374Z,96.40
2023-02-15T03:30:22.831Z,96.60
2023-02-15T03:32:52.158Z,97.00
2023-02-15T03:35:23.865Z,97.20
2023-02-15T03:37:58.663Z,97.10
2023-02-15T03:41:03.824Z,96.70
2023-02-15T03:43:37.272Z,96.50
2023-02-15T03:46:32.292Z,95.80
2023-02-15T03:49:08.372Z,94.50
2023-02-15T03:51:39.553Z,94.20
2023-02-15T03:54:14.917Z,94.30
2023-02-15T03:57:03.283Z,93.90
2023-02-15T03:59:48.802Z,93.40
2023-02-15T04:02:24.978Z,91.80
2023-02-15T04:04:51.667Z,91.10
2023-02-15T04:07:18.440Z,91.20
2023-02-15T04:10:03.681Z,91.40
2023-02-15T04:12:31.479Z,91.70
2023-02-15T04:15:16.621Z,91.90
2023-02-15T04:17:43.307Z,91.50
2023-02-15T04:20:28.675Z,91.50
2023-02-15T04:23:14.041Z,91.40
2023-02-15T04:25:40.822Z,91.60
2023-02-15T04:28:08.801Z,91.50
2023-02-15T04:30:35.546Z,92.20
2023-02-15T04:33:02.287Z,92.60
2023-02-15T04:35:29.094Z,93.00
2023-02-15T04:37:56.891Z,93.10
2023-02-15T04:40:23.635Z,92.70
2023-02-15T04:42:50.451Z,92.30
2023-02-15T04:45:17.966Z,92.00
2023-02-15T04:47:45.180Z,91.10
2023-02-15T04:50:12.232Z,91.40
2023-02-15T04:52:39.202Z,91.80
2023-02-15T04:55:06.429Z,92.00
2023-02-15T04:57:33.332Z,91.90
2023-02-15T05:00:00.215Z,91.10
2023-02-15T05:02:27.157Z,90.30
2023-02-15T05:04:53.918Z,89.70
2023-02-15T05:07:21.431Z,88.20
2023-02-15T05:09:48.456Z,88.80
2023-02-15T05:12:15.186Z,88.00
2023-02-15T05:14:41.887Z,88.50
2023-02-15T05:17:08.607Z,89.20
2023-02-15T05:19:35.358Z,90.00
2023-02-15T05:22:02.092Z,90.50
2023-02-15T05:24:47.529Z,90.90
2023-02-15T05:27:33.885Z,91.00
2023-02-15T05:30:00.732Z,90.90
2023-02-15T05:32:28.071Z,90.50
2023-02-15T05:34:54.880Z,90.50
2023-02-15T05:37:21.593Z,90.50
2023-02-15T05:39:48.322Z,90.70
2023-02-15T05:42:15.299Z,90.60
2023-02-15T05:44:42.045Z,90.10
2023-02-15T05:47:08.809Z,89.50
2023-02-15T05:49:35.640Z,90.30
2023-02-15T05:52:03.405Z,90.20
2023-02-15T05:54:30.239Z,90.10
2023-02-15T05:56:57.070Z,90.10
2023-02-15T05:59:23.984Z,90.20
2023-02-15T06:01:50.677Z,90.60
2023-02-15T06:04:18.500Z,90.90
2023-02-15T06:06:45.225Z,91.30
2023-02-15T06:09:13.713Z,91.60
2023-02-15T06:11:40.709Z,91.80
2023-02-15T06:14:07.633Z,91.50
2023-02-15T06:16:34.314Z,91.60
2023-02-15T06:19:02.454Z,91.70
2023-02-15T06:21:29.766Z,92.20
2023-02-15T06:23:56.509Z,93.10
2023-02-15T06:26:23.305Z,93.60
2023-02-15T06:28:49.982Z,93.60
2023-02-15T06:31:16.770Z,94.30
2023-02-15T06:33:43.560Z,94.50
2023-02-15T06:36:10.221Z,94.80
2023-02-15T06:38:36.924Z,95.30
2023-02-15T06:41:03.654Z,95.70
2023-02-15T06:43:30.330Z,95.40
2023-02-15T06:45:57.054Z,95.40
2023-02-15T06:48:23.789Z,94.80
2023-02-15T06:50:50.482Z,94.30
2023-02-15T06:53:17.240Z,94.20
2023-02-15T06:55:43.946Z,93.90
2023-02-15T06:58:10.643Z,93.70
2023-02-15T07:00:37.399Z,94.00
2023-02-15T07:03:04.147Z,94.10
2023-02-15T07:05:34.863Z,93.90
2023-02-15T07:08:02.311Z,93.60
2023-02-15T07:10:29.217Z,93.30
2023-02-15T07:12:56.201Z,92.90
2023-02-15T07:15:23.269Z,92.60
2023-02-15T07:17:50.448Z,92.30
2023-02-15T07:20:23.098Z,90.80
2023-02-15T07:22:50.580Z,90.20
2023-02-15T07:25:17.664Z,89.40
2023-02-15T07:27:45.810Z,87.90
2023-02-15T07:30:15.119Z,86.40
2023-02-15T07:33:04.873Z,86.20
2023-02-15T07:35:32.936Z,86.80
2023-02-15T07:38:02.213Z,87.10
2023-02-15T07:40:28.930Z,87.20
2023-02-15T07:43:00.029Z,87.10
2023-02-15T07:45:26.894Z,86.60
2023-02-15T07:47:53.714Z,86.20
2023-02-15T07:50:20.476Z,86.40
2023-02-15T07:52:47.185Z,86.70
2023-02-15T07:55:14.187Z,84.40
2023-02-15T07:57:45.505Z,85.30
2023-02-15T08:00:14.248Z,84.40
2023-02-15T08:02:41.136Z,85.90
2023-02-15T08:05:08.418Z,85.40
2023-02-15T08:07:35.134Z,85.40
2023-02-15T08:10:01.840Z,84.80
2023-02-15T08:12:28.594Z,83.80
2023-02-15T08:14:55.379Z,82.90
2023-02-15T08:17:22.076Z,83.70
2023-02-15T08:19:48.860Z,83.00
2023-02-15T08:22:15.740Z,80.00
2023-02-15T08:24:42.537Z,78.40
2023-02-15T08:27:11.201Z,79.50
2023-02-15T08:29:40.112Z,80.40
2023-02-15T08:32:10.486Z,80.90
2023-02-15T08:34:41.955Z,81.80
2023-02-15T08:37:09.003Z,80.30
2023-02-15T08:39:36.025Z,78.00
2023-02-15T08:42:02.924Z,77.00
2023-02-15T08:44:30.163Z,76.30
2023-02-15T08:47:03.433Z,77.50
2023-02-15T08:49:30.156Z,79.30
2023-02-15T08:51:56.865Z,79.10
2023-02-15T08:54:23.620Z,79.00
2023-02-15T08:56:50.529Z,78.50
2023-02-15T08:59:22.843Z,78.90
2023-02-15T09:01:51.723Z,77.90
2023-02-15T09:04:19.150Z,78.90
2023-02-15T09:06:48.844Z,76.80
2023-02-15T09:09:17.172Z,74.00
2023-02-15T09:11:46.467Z,74.50
2023-02-15T09:14:16.579Z,75.60
2023-02-15T09:16:50.146Z,74.30
2023-02-15T09:19:19.275Z,75.20
2023-02-15T09:21:46.357Z,76.20
2023-02-15T09:24:15.166Z,76.30
2023-02-15T09:26:44.174Z,76.40
2023-02-15T09:29:12.652Z,77.00
2023-02-15T09:31:45.994Z,75.50
2023-02-15T09:34:14.269Z,73.60
2023-02-15T09:36:41.919Z,73.00
2023-02-15T09:39:12.384Z,72.10
2023-02-15T09:41:57.066Z,71.10
2023-02-15T09:44:54.875Z,72.00
2023-02-15T09:47:31.562Z,75.10
2023-02-15T09:50:36.844Z,75.60
2023-02-15T09:53:31.706Z,76.30
2023-02-15T09:56:07.208Z,79.80
2023-02-15T09:59:00.238Z,81.90
2023-02-15T10:01:36.759Z,80.10
2023-02-15T10:04:12.543Z,78.50
2023-02-15T10:06:45.601Z,76.20
2023-02-15T10:09:33.091Z,76.70
2023-02-15T10:12:08.779Z,77.20
2023-02-15T10:15:00.174Z,76.30
2023-02-15T10:17:42.167Z,73.80
2023-02-15T10:20:32.972Z,73.80
2023-02-15T10:23:21.933Z,73.40
2023-02-15T10:26:24.785Z,72.60
2023-02-15T10:29:02.090Z,72.00
2023-02-15T10:31:31.474Z,70.20
2023-02-15T10:34:15.824Z,68.70
2023-02-15T10:36:45.227Z,67.00
2023-02-15T10:39:25.782Z,66.10
2023-02-15T10:42:09.919Z,68.10
2023-02-15T10:44:49.164Z,68.80
2023-02-15T10:47:34.710Z,68.40
2023-02-15T10:50:11.847Z,68.80
2023-02-15T10:52:52.422Z,70.00
2023-02-15T10:55:41.293Z,69.10
2023-02-15T10:58:26.685Z,70.70
2023-02-15T11:01:04.991Z,72.20
2023-02-15T11:03:44.869Z,72.00
2023-02-15T11:06:19.161Z,71.90
2023-02-15T11:08:57.155Z,70.80
2023-02-15T11:11:45.843Z,69.70
2023-02-15T11:14:34.216Z,70.40
2023-02-15T11:17:11.550Z,71.80
2023-02-15T11:20:08.756Z,72.00
2023-02-15T11:22:35.878Z,73.40
2023-02-15T11:25:15.263Z,73.80
2023-02-15T11:27:43.631Z,74.90
2023-02-15T11:30:25.926Z,78.80
2023-02-15T11:32:58.560Z,80.60
2023-02-15T11:35:37.896Z,80.60
2023-02-15T11:38:16.129Z,80.50
2023-02-15T11:41:10.556Z,79.90
2023-02-15T11:44:07.930Z,80.00
2023-02-15T11:46:34.889Z,82.60
2023-02-15T11:49:01.750Z,83.40
2023-02-15T11:51:29.909Z,83.50
2023-02-15T11:53:57.744Z,83.60
2023-02-15T11:56:26.843Z,83.70
2023-02-15T11:58:56.960Z,83.10
2023-02-15T12:01:43.885Z,83.80
2023-02-15T12:04:25.313Z,83.50
2023-02-15T12:07:03.767Z,81.40
2023-02-15T12:09:58.082Z,81.10
2023-02-15T12:12:31.158Z,81.60
2023-02-15T12:15:04.000Z,79.50
2023-02-15T12:17:34.515Z,77.50
2023-02-15T12:20:04.306Z,75.50
2023-02-15T12:22:33.947Z,75.80
2023-02-15T12:25:03.850Z,76.30
2023-02-15T12:27:36.510Z,74.50
2023-02-15T12:30:11.005Z,74.30
2023-02-15T12:32:51.380Z,74.10
2023-02-15T12:35:31.582Z,73.80
2023-02-15T12:38:03.505Z,72.80
2023-02-15T12:40:32.167Z,72.90
2023-02-15T12:42:59.315Z,70.70
2023-02-15T12:45:33.354Z,69.00
2023-02-15T12:48:21.017Z,66.80
2023-02-15T12:50:54.787Z,65.60
2023-02-15T12:53:34.265Z,65.70
2023-02-15T12:56:07.741Z,64.50
2023-02-15T12:58:36.682Z,63.90
2023-02-15T13:01:20.386Z,63.80
2023-02-15T13:04:00.823Z,63.70
2023-02-15T13:06:29.698Z,60.40
2023-02-15T13:09:00.568Z,59.70
2023-02-15T13:11:35.266Z,59.30
2023-02-15T13:14:20.199Z,58.70
2023-02-15T13:16:49.823Z,58.90
2023-02-15T13:19:32.508Z,59.10
2023-02-15T13:22:02.752Z,59.30
2023-02-15T13:24:56.480Z,58.60
2023-02-15T13:27:31.130Z,58.50
2023-02-15T13:30:03.186Z,57.70
2023-02-15T13:32:37.257Z,58.50
2023-02-15T13:35:08.165Z,57.80
2023-02-15T13:38:01.017Z,56.70
2023-02-15T13:40:52.166Z,56.70
2023-02-15T13:43:18.905Z,56.40
2023-02-15T13:46:15.084Z,55.80
2023-02-15T13:49:03.045Z,55.50
2023-02-15T13:51:44.203Z,55.50
2023-02-15T13:54:29.551Z,55.30
2023-02-15T13:57:34.390Z,55.10
2023-02-15T14:00:22.237Z,54.80
2023-02-15T14:03:14.028Z,54.60
2023-02-15T14:06:06.128Z,54.20
2023-02-15T14:08:38.718Z,53.90
2023-02-15T14:11:23.627Z,54.20
2023-02-15T14:14:02.247Z,54.40
2023-02-15T14:16:40.297Z,54.20
2023-02-15T14:19:46.788Z,54.80
2023-02-15T14:22:38.415Z,54.30
2023-02-15T14:25:29.545Z,54.40
2023-02-15T14:28:16.709Z,54.90
2023-02-15T14:30:48.109Z,54.70
2023-02-15T14:33:15.176Z,54.60
2023-02-15T14:35:43.358Z,55.10
2023-02-15T14:38:23.596Z,55.70
2023-02-15T14:41:06.062Z,56.30
2023-02-15T14:44:10.640Z,56.80
2023-02-15T14:46:47.014Z,57.00
2023-02-15T14:49:17.556Z,57.30
2023-02-15T14:51:44.307Z,57.30
2023-02-15T14:54:20.847Z,57.70
2023-02-15T14:57:13.910Z,57.50
2023-02-15T14:59:51.261Z,57.90
2023-02-15T15:02:49.609Z,58.00
2023-02-15T15:05:47.006Z,58.00
2023-02-15T15:08:28.567Z,58.20
2023-02-15T15:10:56.348Z,57.60
2023-02-15T15:13:32.045Z,57.80
2023-02-15T15:16:25.128Z,58.20
2023-02-15T15:18:52.132Z,59.10
2023-02-15T15:21:47.128Z,59.20
2023-02-15T15:24:39.329Z,59.20
2023-02-15T15:27:46.045Z,59.20
2023-02-15T15:30:15.955Z,59.60
2023-02-15T15:32:58.861Z,59.80
2023-02-15T15:35:45.821Z,59.90
2023-02-15T15:38:34.103Z,60.40
2023-02-15T15:41:09.961Z,60.40
2023-02-15T15:43:55.325Z,61.20
2023-02-15T15:47:05.319Z,61.20
2023-02-15T15:49:34.837Z,61.70
2023-02-15T15:52:18.083Z,63.10
2023-02-15T15:54:48.144Z,63.20
2023-02-15T15:57:33.292Z,63.80
2023-02-15T16:00:26.111Z,65.10
2023-02-15T16:02:54.422Z,66.00
2023-02-15T16:05:21.332Z,67.60
2023-02-15T16:07:49.586Z,68.60
2023-02-15T16:10:38.844Z,69.40
2023-02-15T16:13:08.147Z,70.50
2023-02-15T16:15:53.283Z,70.40
2023-02-15T16:18:26.130Z,70.50
2023-02-15T16:21:01.619Z,71.00
2023-02-15T16:23:57.231Z,71.60
2023-02-15T16:27:00.017Z,73.50
2023-02-15T16:29:33.624Z,75.10
2023-02-15T16:32:05.004Z,76.10
2023-02-15T16:34:33.692Z,76.70
2023-02-15T16:37:17.546Z,77.20
2023-02-15T16:39:46.128Z,78.10
2023-02-15T16:42:15.741Z,79.10
2023-02-15T16:44:43.806Z,79.60
2023-02-15T16:47:25.046Z,80.50
2023-02-15T16:49:54.816Z,81.00
2023-02-15T16:52:27.768Z,81.80
2023-02-15T16:55:04.424Z,82.20
2023-02-15T16:57:36.338Z,82.90
2023-02-15T17:00:14.370Z,83.60
2023-02-15T17:02:56.740Z,83.70
2023-02-15T17:05:24.272Z,83.60
2023-02-15T17:08:05.404Z,83.40
2023-02-15T17:10:42.681Z,82.50
2023-02-15T17:13:14.545Z,81.50
2023-02-15T17:15:44.314Z,80.10
2023-02-15T17:18:22.664Z,79.80
2023-02-15T17:20:52.736Z,79.60
2023-02-15T17:23:31.750Z,79.30
2023-02-15T17:26:00.351Z,79.50
2023-02-15T17:28:31.692Z,79.60
2023-02-15T17:30:59.610Z,79.30
2023-02-15T17:33:33.898Z,79.50
2023-02-15T17:36:09.904Z,79.40
2023-02-15T17:38:38.447Z,79.70
2023-02-15T17:41:05.642Z,79.40
2023-02-15T17:43:32.580Z,79.70
2023-02-15T17:45:59.755Z,79.30
2023-02-15T17:48:35.347Z,79.70
2023-02-15T17:51:04.242Z,80.50
2023-02-15T17:53:31.978Z,81.50
2023-02-15T17:55:58.901Z,82.00
2023-02-15T17:58:25.742Z,82.70
2023-02-15T18:01:15.499Z,82.60
2023-02-15T18:04:07.675Z,82.20
2023-02-15T18:06:55.093Z,82.80
2023-02-15T18:09:41.842Z,83.50
2023-02-15T18:12:25.077Z,85.70
2023-02-15T18:14:54.376Z,86.80
2023-02-15T18:17:45.659Z,87.00
2023-02-15T18:20:24.479Z,87.60
2023-02-15T18:22:52.473Z,88.10
2023-02-15T18:25:21.946Z,88.60
2023-02-15T18:27:48.722Z,88.50
2023-02-15T18:30:21.467Z,88.50
2023-02-15T18:32:51.402Z,89.00
2023-02-15T18:35:24.445Z,88.40
2023-02-15T18:37:53.447Z,88.10
2023-02-15T18:40:26.218Z,87.40
2023-02-15T18:42:53.247Z,88.10
2023-02-15T18:45:36.180Z,88.00
2023-02-15T18:48:03.796Z,88.10
2023-02-15T18:50:34.378Z,87.70
2023-02-15T18:53:03.748Z,87.50
2023-02-15T18:55:32.713Z,87.10
2023-02-15T18:58:01.225Z,86.90
2023-02-15T19:00:33.640Z,87.10
2023-02-15T19:03:02.234Z,86.50
2023-02-15T19:05:30.923Z,86.10
2023-02-15T19:08:00.765Z,87.00
2023-02-15T19:10:29.675Z,86.80
2023-02-15T19:12:57.495Z,87.30
2023-02-15T19:15:26.943Z,87.90
2023-02-15T19:17:54.682Z,87.80
2023-02-15T19:20:28.030Z,87.50
2023-02-15T19:22:57.013Z,87.10
2023-02-15T19:25:30.036Z,87.50
2023-02-15T19:27:58.403Z,88.50
2023-02-15T19:30:28.696Z,88.00
2023-02-15T19:32:56.747Z,88.10
2023-02-15T19:35:27.077Z,88.70
2023-02-15T19:37:56.578Z,89.00
2023-02-15T19:40:25.368Z,89.60
2023-02-15T19:42:52.619Z,89.30
2023-02-15T19:45:27.986Z,88.80
2023-02-15T19:47:55.321Z,88.00
2023-02-15T19:50:29.152Z,87.00
2023-02-15T19:52:56.080Z,86.40
2023-02-15T19:55:28.645Z,87.20
2023-02-15T19:57:57.545Z,88.10
2023-02-15T20:00:34.616Z,88.30
2023-02-15T20:03:01.839Z,89.50
2023-02-15T20:05:30.862Z,89.80
2023-02-15T20:07:58.251Z,89.70
2023-02-15T20:10:28.832Z,90.10
2023-02-15T20:12:55.875Z,90.00
2023-02-15T20:15:27.315Z,89.60
2023-02-15T20:17:55.339Z,91.00
2023-02-15T20:20:24.208Z,91.70
2023-02-15T20:22:51.985Z,92.00
2023-02-15T20:25:24.942Z,92.00
2023-02-15T20:27:51.803Z,92.50
2023-02-15T20:30:21.283Z,92.80
2023-02-15T20:32:48.835Z,92.40
2023-02-15T20:35:17.961Z,92.80
2023-02-15T20:37:46.880Z,93.10
2023-02-15T20:40:15.910Z,93.30
2023-02-15T20:42:42.771Z,93.30
2023-02-15T20:45:27.521Z,93.30
2023-02-15T20:47:54.837Z,92.80
2023-02-15T20:50:28.203Z,92.80
2023-02-15T20:52:56.570Z,93.20
2023-02-15T20:55:29.281Z,92.80
2023-02-15T20:57:56.929Z,92.60
2023-02-15T21:00:26.400Z,93.00
2023-02-15T21:02:57.016Z,93.20
2023-02-15T21:05:30.454Z,93.10
2023-02-15T21:07:58.035Z,93.40
2023-02-15T21:10:29.366Z,93.50
2023-02-15T21:12:58.350Z,93.50
2023-02-15T21:15:37.291Z,93.60
2023-02-15T21:18:07.271Z,93.50
2023-02-15T21:20:35.520Z,93.50
2023-02-15T21:23:05.046Z,93.00
2023-02-15T21:25:37.148Z,93.10
2023-02-15T21:28:08.535Z,93.40
2023-02-15T21:30:35.652Z,93.60
2023-02-15T21:33:02.458Z,93.70
2023-02-15T21:35:29.391Z,93.50
2023-02-15T21:37:56.615Z,93.10
2023-02-15T21:40:31.077Z,93.00
2023-02-15T21:43:17.043Z,92.60
2023-02-15T21:46:02.837Z,92.40
2023-02-15T21:48:29.621Z,92.20
2023-02-15T21:51:14.790Z,92.10
2023-02-15T21:53:45.993Z,91.60
2023-02-15T21:56:19.688Z,91.10
2023-02-15T21:58:47.049Z,91.00
2023-02-15T22:01:25.336Z,90.90
2023-02-15T22:03:54.686Z,91.00
2023-02-15T22:06:21.652Z,90.80
2023-02-15T22:08:48.358Z,90.90
2023-02-15T22:11:19.581Z,90.80
2023-02-15T22:13:47.459Z,91.30
2023-02-15T22:16:19.804Z,91.10
2023-02-15T22:18:47.349Z,90.90
2023-02-15T22:21:16.733Z,90.90
2023-02-15T22:23:43.919Z,91.30
2023-02-15T22:26:24.250Z,91.20
2023-02-15T22:28:51.471Z,90.90
2023-02-15T22:31:23.152Z,91.20
2023-02-15T22:33:51.249Z,91.60
2023-02-15T22:36:26.343Z,91.60
2023-02-15T22:38:54.202Z,91.50
2023-02-15T22:41:30.308Z,91.30
2023-02-15T22:43:58.018Z,91.40
2023-02-15T22:46:26.024Z,91.30
2023-02-15T22:48:53.110Z,90.90
2023-02-15T22:51:22.367Z,91.10
2023-02-15T22:53:51.769Z,91.10
2023-02-15T22:56:27.407Z,91.10
2023-02-15T22:59:02.174Z,91.30
2023-02-15T23:01:38.083Z,90.70
2023-02-15T23:04:05.435Z,90.50
2023-02-15T23:06:34.250Z,90.60
2023-02-15T23:09:01.142Z,90.70
2023-02-15T23:11:28.242Z,91.00
2023-02-15T23:13:55.148Z,91.90
2023-02-15T23:16:21.945Z,92.20
2023-02-15T23:18:49.367Z,92.20
2023-02-15T23:21:30.715Z,92.50
2023-02-15T23:24:28.473Z,92.90
2023-02-15T23:27:16.106Z,92.80
2023-02-15T23:29:42.818Z,92.80
2023-02-15T23:32:13.391Z,92.40
2023-02-15T23:34:40.595Z,92.60
2023-02-15T23:37:11.089Z,92.70
2023-02-15T23:39:58.079Z,92.80
2023-02-15T23:42:29.017Z,92.80
2023-02-15T23:44:56.360Z,92.70
2023-02-15T23:47:51.661Z,92.70
2023-02-15T23:50:30.051Z,92.70
2023-02-15T23:52:57.689Z,92.70
2023-02-15T23:55:36.056Z,92.50
2023-02-15T23:58:10.096Z,91.80
